Time;durP1;ratioP1;P1;durP2;ratioP2;P2;SDS_P1;SDS_P2;PMS_P1;PMS_P2;Temp;Humidity;BMP_temperature;BMP_pressure;BME280_temperature;BME280_humidity;BME280_pressure;Samples;Min_cycle;Max_cycle;Signal;HPM_P1;HPM_P2
2023/06/01 00:01:33;;;;;;;;;;;;;;;16.12;100.00;99869.94;5005985;28;19928;-76
2023/06/01 00:03:59;;;;;;;;;;;;;;;16.22;100.00;99865.25;5003307;28;20379;-76
2023/06/01 00:06:28;;;;;;;;;;;;;;;16.27;100.00;99860.22;5005690;28;20012;-75
2023/06/01 00:08:57;;;;;;;;;;;;;;;16.35;100.00;99865.53;5004137;28;19917;-76
2023/06/01 00:11:23;;;;;;;;;;;;;;;16.32;100.00;99855.22;5005815;28;20361;-76
2023/06/01 00:13:49;;;;;;;;;;;;;;;16.35;100.00;99854.88;5004349;28;19949;-77
2023/06/01 00:16:14;;;;;;;;;;;;;;;16.36;100.00;99848.56;5004634;28;19914;-77
2023/06/01 00:18:40;;;;;;;;;;;;;;;16.36;100.00;99851.22;5005366;28;19956;-76
2023/06/01 00:21:05;;;;;;;;;;;;;;;16.42;100.00;99855.88;5003942;28;19930;-77
2023/06/01 00:23:31;;;;;;;;;;;;;;;16.45;100.00;99852.84;5007020;28;19961;-76
2023/06/01 00:25:57;;;;;;;;;;;;;;;16.36;100.00;99851.22;5008658;28;19961;-76
2023/06/01 00:28:22;;;;;;;;;;;;;;;16.43;100.00;99849.53;5006896;28;19988;-75
2023/06/01 00:30:48;;;;;;;;;;;;;;;16.41;100.00;99848.88;5007891;28;19921;-75
2023/06/01 00:33:13;;;;;;;;;;;;;;;16.38;100.00;99850.03;5007347;28;19928;-76
2023/06/01 00:35:39;;;;;;;;;;;;;;;16.34;100.00;99842.56;4989213;28;19941;-75
2023/06/01 00:38:06;;;;;;;;;;;;;;;16.37;100.00;99847.56;5008926;28;19959;-75
2023/06/01 00:40:32;;;;;;;;;;;;;;;16.44;100.00;99864.50;4992556;28;20091;-74
2023/06/01 00:42:57;;;;;;;;;;;;;;;16.52;100.00;99872.47;5005687;28;19917;-76
2023/06/01 00:45:23;;;;;;;;;;;;;;;16.49;100.00;99848.00;4993632;28;19921;-77
2023/06/01 00:47:48;;;;;;;;;;;;;;;16.44;100.00;99837.03;5009392;28;19925;-77
2023/06/01 00:50:14;;;;;;;;;;;;;;;16.49;100.00;99830.19;4989330;28;19917;-76
2023/06/01 00:52:40;;;;;;;;;;;;;;;16.53;100.00;99820.84;5005769;28;20293;-77
2023/06/01 00:55:06;;;;;;;;;;;;;;;16.58;100.00;99823.81;5007301;28;20016;-77
2023/06/01 00:57:32;;;;;;;;;;;;;;;16.58;100.00;99823.81;5001909;28;19977;-77
2023/06/01 00:59:58;;;;;;;;;;;;;;;16.58;100.00;99839.78;5004319;28;19925;-77
2023/06/01 01:02:23;;;;;;;;;;;;;;;16.62;100.00;99830.47;4999037;28;20317;-76
2023/06/01 01:04:52;;;;;;;;;;;;;;;16.66;100.00;99830.97;4983979;28;20369;-76
2023/06/01 01:07:26;;;;;;;;;;;;;;;16.47;100.00;99832.19;5003745;28;19933;-76
2023/06/01 01:10:10;;;;;;;;;;;;;;;16.36;100.00;99829.91;4986419;28;19917;-76
2023/06/01 01:12:41;;;;;;;;;;;;;;;16.40;100.00;99825.91;5001600;28;20368;-76
2023/06/01 01:15:20;;;;;;;;;;;;;;;16.43;100.00;99830.91;4987611;28;19918;-74
2023/06/01 01:17:48;;;;;;;;;;;;;;;16.48;100.00;99828.53;5002878;28;19968;-76
2023/06/01 01:20:50;;;;;;;;;;;;;;;16.52;100.00;99824.50;4985296;28;19967;-75
2023/06/01 01:23:54;;;;;;;;;;;;;;;16.55;100.00;99842.78;4936667;29;19918;-74
2023/06/01 01:26:24;;;;;;;;;;;;;;;16.56;100.00;99836.47;4934491;29;19997;-75
2023/06/01 01:29:00;;;;;;;;;;;;;;;16.57;100.00;99837.31;4916766;29;20034;-75
2023/06/01 01:31:26;;;;;;;;;;;;;;;16.44;100.00;99827.19;4932595;29;19919;-76
2023/06/01 01:33:53;;;;;;;;;;;;;;;16.28;100.00;99822.78;4916719;29;19919;-76
2023/06/01 01:36:19;;;;;;;;;;;;;;;16.19;100.00;99833.66;4914618;29;19966;-76
2023/06/01 01:38:44;;;;;;;;;;;;;;;16.20;100.00;99824.66;4931991;29;20316;-77
2023/06/01 01:41:10;;;;;;;;;;;;;;;16.13;100.00;99829.84;4932216;29;19923;-77
2023/06/01 01:43:36;;;;;;;;;;;;;;;16.04;100.00;99824.69;4916000;29;20006;-77
2023/06/01 01:46:13;;;;;;;;;;;;;;;15.96;100.00;99831.69;4932583;29;19966;-77
2023/06/01 01:48:50;;;;;;;;;;;;;;;15.94;100.00;99825.75;4930224;29;20355;-76
2023/06/01 01:51:27;;;;;;;;;;;;;;;15.98;100.00;99827.03;4932463;29;19962;-78
2023/06/01 01:53:54;;;;;;;;;;;;;;;15.98;100.00;99826.22;4916136;29;19930;-76
2023/06/01 01:56:21;;;;;;;;;;;;;;;15.91;100.00;99826.06;4942035;28;20410;-75
2023/06/01 01:58:47;;;;;;;;;;;;;;;15.94;100.00;99819.59;5002847;28;19924;-75
2023/06/01 02:01:13;;;;;;;;;;;;;;;16.01;100.00;99820.56;4985359;28;19967;-77
2023/06/01 02:03:38;;;;;;;;;;;;;;;16.09;100.00;99825.00;5006598;28;20019;-78
2023/06/01 02:06:04;;;;;;;;;;;;;;;16.13;100.00;99818.38;5003494;28;19917;-77
2023/06/01 02:08:29;;;;;;;;;;;;;;;16.18;100.00;99824.00;4998787;28;19922;-78
2023/06/01 02:10:55;;;;;;;;;;;;;;;16.20;100.00;99825.47;4982887;28;19918;-77
2023/06/01 02:13:20;;;;;;;;;;;;;;;16.23;100.00;99819.81;5002260;28;20024;-75
2023/06/01 02:15:46;;;;;;;;;;;;;;;16.23;100.00;99821.66;5001588;28;19917;-78
2023/06/01 02:18:11;;;;;;;;;;;;;;;16.23;100.00;99824.31;5000898;28;19926;-78
2023/06/01 02:20:36;;;;;;;;;;;;;;;16.27;100.00;99818.47;5002749;28;19940;-76
2023/06/01 02:23:02;;;;;;;;;;;;;;;16.28;100.00;99820.13;4982242;28;19918;-77
2023/06/01 02:25:27;;;;;;;;;;;;;;;16.23;100.00;99819.81;5005014;28;19917;-78
2023/06/01 02:27:53;;;;;;;;;;;;;;;16.24;100.00;99820.66;5000771;28;19917;-77
2023/06/01 02:30:18;;;;;;;;;;;;;;;16.23;100.00;99814.50;5001794;28;19972;-77
2023/06/01 02:32:48;;;;;;;;;;;;;;;16.09;100.00;99819.69;4999132;28;19976;-78
2023/06/01 02:35:14;;;;;;;;;;;;;;;16.00;100.00;99812.75;5016828;28;20370;-77
2023/06/01 02:37:40;;;;;;;;;;;;;;;15.96;100.00;99807.75;4982938;28;19976;-77
2023/06/01 02:40:10;;;;;;;;;;;;;;;15.86;100.00;99812.44;5002581;28;20346;-78
2023/06/01 02:42:36;;;;;;;;;;;;;;;15.87;100.00;99814.09;4981993;28;20405;-78
2023/06/01 02:45:04;;;;;;;;;;;;;;;15.90;100.00;99803.09;5003228;28;19960;-77
2023/06/01 02:47:29;;;;;;;;;;;;;;;15.93;100.00;99808.09;5017912;28;19928;-78
2023/06/01 02:49:54;;;;;;;;;;;;;;;15.98;100.00;99800.44;5003075;28;19925;-77
2023/06/01 02:52:20;;;;;;;;;;;;;;;15.99;100.00;99801.25;5004617;28;20004;-76
2023/06/01 02:54:45;;;;;;;;;;;;;;;16.02;100.00;99792.94;4988983;28;19968;-78
2023/06/01 02:57:40;;;;;;;;;;;;;;;15.81;100.00;99790.84;4990224;28;20267;-76
2023/06/01 03:00:15;;;;;;;;;;;;;;;15.69;100.00;99786.88;4986254;28;19924;-77
2023/06/01 03:02:42;;;;;;;;;;;;;;;15.55;100.00;99785.72;4988036;28;19940;-76
2023/06/01 03:05:08;;;;;;;;;;;;;;;15.61;100.00;99789.53;5003954;28;19913;-77
2023/06/01 03:07:34;;;;;;;;;;;;;;;15.62;100.00;99799.19;4989023;28;19932;-76
2023/06/01 03:10:08;;;;;;;;;;;;;;;15.60;100.00;99790.56;4988417;28;19914;-77
2023/06/01 03:12:58;;;;;;;;;;;;;;;15.61;100.00;99796.72;5018701;28;19918;-76
2023/06/01 03:15:24;;;;;;;;;;;;;;;15.66;100.00;99784.56;5005480;28;20012;-76
2023/06/01 03:17:49;;;;;;;;;;;;;;;15.65;100.00;99777.59;5004237;28;19932;-77
2023/06/01 03:20:15;;;;;;;;;;;;;;;15.50;100.00;99777.41;5004588;28;19936;-76
2023/06/01 03:22:42;;;;;;;;;;;;;;;15.44;100.00;99783.38;4987615;28;20008;-76
2023/06/01 03:25:08;;;;;;;;;;;;;;;15.53;100.00;99785.09;4987765;28;20381;-77
2023/06/01 03:27:33;;;;;;;;;;;;;;;15.56;100.00;99790.06;4985243;28;19925;-77
2023/06/01 03:30:01;;;;;;;;;;;;;;;15.57;100.00;99796.22;5006268;28;19928;-77
2023/06/01 03:32:27;;;;;;;;;;;;;;;15.63;100.00;99795.53;5018076;28;20290;-77
2023/06/01 03:34:55;;;;;;;;;;;;;;;15.70;100.00;99790.38;4987607;28;20620;-77
2023/06/01 03:37:20;;;;;;;;;;;;;;;15.67;100.00;99798.69;5004092;28;19917;-77
2023/06/01 03:39:47;;;;;;;;;;;;;;;15.58;100.00;99797.88;4986538;28;20500;-76
2023/06/01 03:42:13;;;;;;;;;;;;;;;15.44;100.00;99806.50;4987014;28;20023;-76
2023/06/01 03:44:39;;;;;;;;;;;;;;;15.42;100.00;99800.53;5002902;28;20413;-76
2023/06/01 03:47:05;;;;;;;;;;;;;;;15.42;100.00;99800.53;4988800;28;19917;-77
2023/06/01 03:49:31;;;;;;;;;;;;;;;15.46;100.00;99807.16;5004534;28;19922;-76
2023/06/01 03:51:56;;;;;;;;;;;;;;;15.51;100.00;99802.16;4985885;28;20013;-76
2023/06/01 03:54:22;;;;;;;;;;;;;;;15.55;100.00;99808.88;5007573;28;19979;-76
2023/06/01 03:56:48;;;;;;;;;;;;;;;15.60;100.00;99817.16;5004846;28;19972;-78
2023/06/01 03:59:13;;;;;;;;;;;;;;;15.65;100.00;99828.13;4971019;28;19918;-77
2023/06/01 04:01:39;;;;;;;;;;;;;;;15.67;100.00;99818.13;5006425;28;19922;-78
2023/06/01 04:04:05;;;;;;;;;;;;;;;15.64;100.00;99820.31;4987999;28;20377;-77
2023/06/01 04:06:35;;;;;;;;;;;;;;;15.58;100.00;99819.16;4987486;28;19928;-78
2023/06/01 04:09:06;;;;;;;;;;;;;;;15.61;100.00;99824.13;4973831;28;19917;-78
2023/06/01 04:11:35;;;;;;;;;;;;;;;15.64;100.00;99823.81;5021301;28;19925;-75
2023/06/01 04:14:01;;;;;;;;;;;;;;;15.68;100.00;99827.78;5002473;28;20273;-75
2023/06/01 04:16:27;;;;;;;;;;;;;;;15.68;100.00;99830.44;4986124;28;19925;-77
2023/06/01 04:18:53;;;;;;;;;;;;;;;15.71;100.00;99831.94;4989722;28;19964;-76
2023/06/01 04:21:25;;;;;;;;;;;;;;;15.68;100.00;99835.75;5005735;28;20016;-77
2023/06/01 04:23:51;;;;;;;;;;;;;;;15.65;100.00;99835.28;5005891;28;19925;-78
2023/06/01 04:26:18;;;;;;;;;;;;;;;15.59;100.00;99842.09;5002299;28;19917;-76
2023/06/01 04:28:45;;;;;;;;;;;;;;;15.57;100.00;99844.09;5002585;28;20029;-77
2023/06/01 04:31:19;;;;;;;;;;;;;;;15.53;100.00;99837.44;4986901;28;19918;-76
2023/06/01 04:33:52;;;;;;;;;;;;;;;15.47;100.00;99844.25;4982414;28;20330;-76
2023/06/01 04:36:22;;;;;;;;;;;;;;;15.41;100.00;99836.09;4982617;28;19918;-77
2023/06/01 04:38:54;;;;;;;;;;;;;;;15.30;100.00;99841.75;4983450;28;19914;-78
2023/06/01 04:41:21;;;;;;;;;;;;;;;15.24;100.00;99842.41;4982525;28;19926;-78
2023/06/01 04:43:52;;;;;;;;;;;;;;;15.19;100.00;99839.41;4983631;28;20387;-76
2023/06/01 04:46:23;;;;;;;;;;;;;;;15.20;100.00;99835.78;4983800;28;20298;-78
2023/06/01 04:48:53;;;;;;;;;;;;;;;15.21;100.00;99832.91;4983337;28;19922;-75
2023/06/01 04:51:23;;;;;;;;;;;;;;;15.18;100.00;99835.09;4982707;28;19918;-77
2023/06/01 04:53:51;;;;;;;;;;;;;;;15.19;100.00;99834.09;4982856;28;19929;-76
2023/06/01 04:56:18;;;;;;;;;;;;;;;15.24;100.00;99837.09;4985308;28;19924;-77
2023/06/01 04:58:43;;;;;;;;;;;;;;;15.26;100.00;99835.06;4984208;28;19944;-77
2023/06/01 05:01:15;;;;;;;;;;;;;;;15.33;100.00;99830.75;4980616;28;20016;-74
2023/06/01 05:03:41;;;;;;;;;;;;;;;15.45;100.00;99834.75;4984480;28;20289;-76
2023/06/01 05:06:07;;;;;;;;;;;;;;;15.54;100.00;99828.47;4989037;28;19917;-76
2023/06/01 05:08:33;;;;;;;;;;;;;;;15.65;100.00;99835.28;4986743;28;20037;-76
2023/06/01 05:10:59;;;;;;;;;;;;;;;15.65;100.00;99841.44;4992105;28;20231;-76
2023/06/01 05:13:24;;;;;;;;;;;;;;;15.65;100.00;99833.44;4987989;28;19917;-76
2023/06/01 05:15:50;;;;;;;;;;;;;;;15.71;100.00;99830.13;4986936;28;19921;-78
2023/06/01 05:18:16;;;;;;;;;;;;;;;15.83;100.00;99831.44;4985168;28;19962;-78
2023/06/01 05:20:41;;;;;;;;;;;;;;;15.91;100.00;99831.38;4985705;28;19940;-77
2023/06/01 05:23:07;;;;;;;;;;;;;;;15.98;100.00;99832.38;4984238;28;19918;-78
2023/06/01 05:25:32;;;;;;;;;;;;;;;16.10;100.00;99840.00;4989804;28;19941;-77
2023/06/01 05:27:58;;;;;;;;;;;;;;;16.12;100.00;99832.66;4984774;28;19918;-77
2023/06/01 05:30:24;;;;;;;;;;;;;;;16.02;100.00;99832.88;4988582;28;19926;-77
2023/06/01 05:32:50;;;;;;;;;;;;;;;16.07;100.00;99829.69;4985086;28;19980;-75
2023/06/01 05:35:18;;;;;;;;;;;;;;;16.09;100.00;99839.16;4981247;28;19996;-75
2023/06/01 05:37:44;;;;;;;;;;;;;;;16.18;100.00;99834.66;4987347;28;20269;-76
2023/06/01 05:40:09;;;;;;;;;;;;;;;16.28;100.00;99833.44;4984056;28;19929;-78
2023/06/01 05:42:36;;;;;;;;;;;;;;;16.43;100.00;99832.72;5014532;28;19917;-75
2023/06/01 05:45:02;;;;;;;;;;;;;;;16.44;100.00;99832.53;4982808;28;19921;-77
2023/06/01 05:47:28;;;;;;;;;;;;;;;16.42;100.00;99828.41;4982338;28;19930;-78
2023/06/01 05:49:54;;;;;;;;;;;;;;;16.27;100.00;99822.94;4982185;28;19918;-76
2023/06/01 05:52:19;;;;;;;;;;;;;;;16.41;100.00;99832.88;4985985;28;20370;-77
2023/06/01 05:54:45;;;;;;;;;;;;;;;16.46;100.00;99835.03;4984124;28;19918;-76
2023/06/01 05:57:10;;;;;;;;;;;;;;;16.37;100.00;99837.72;4985679;28;19914;-76
2023/06/01 05:59:36;;;;;;;;;;;;;;;16.42;100.00;99833.72;4985586;28;20778;-79
2023/06/01 06:02:02;;;;;;;;;;;;;;;16.51;100.00;99830.84;4983520;28;19922;-76
2023/06/01 06:04:28;;;;;;;;;;;;;;;16.52;100.00;99829.84;4986255;28;19925;-75
2023/06/01 06:06:53;;;;;;;;;;;;;;;16.61;100.00;99823.47;4983811;28;19954;-78
2023/06/01 06:09:19;;;;;;;;;;;;;;;16.69;100.00;99827.94;4985484;28;19928;-83
2023/06/01 06:11:44;;;;;;;;;;;;;;;16.83;100.00;99835.19;4989914;28;20004;-84
2023/06/01 06:14:11;;;;;;;;;;;;;;;16.90;100.00;99832.66;4992131;28;19925;-83
2023/06/01 06:16:36;;;;;;;;;;;;;;;17.03;100.00;99832.88;4989854;28;19922;-84
2023/06/01 06:19:02;;;;;;;;;;;;;;;16.94;100.00;99833.97;4998384;28;19917;-85
2023/06/01 06:21:27;;;;;;;;;;;;;;;16.95;100.00;99840.97;4989355;28;19918;-87
2023/06/01 06:23:58;;;;;;;;;;;;;;;16.98;100.00;99841.41;4986638;28;19991;-85
2023/06/01 06:26:25;;;;;;;;;;;;;;;17.12;100.00;99847.84;4986949;28;19938;-86
2023/06/01 06:28:51;;;;;;;;;;;;;;;17.21;100.00;99846.75;4986682;28;19922;-85
2023/06/01 06:31:16;;;;;;;;;;;;;;;17.23;100.00;99850.09;4991184;28;19925;-87
2023/06/01 06:33:42;;;;;;;;;;;;;;;17.32;100.00;99854.34;4994437;28;19988;-87
2023/06/01 06:36:07;;;;;;;;;;;;;;;17.33;100.00;99845.31;5007775;28;19923;-87
2023/06/01 06:38:32;;;;;;;;;;;;;;;17.42;100.00;99844.28;5009042;28;19922;-84
2023/06/01 06:40:58;;;;;;;;;;;;;;;17.42;100.00;99844.28;5015830;28;19924;-85
2023/06/01 06:43:24;;;;;;;;;;;;;;;17.51;100.00;99847.69;5013082;28;19980;-87
2023/06/01 06:45:49;;;;;;;;;;;;;;;17.53;100.00;99838.50;5012728;28;20036;-87
2023/06/01 06:48:35;;;;;;;;;;;;;;;17.64;100.00;99831.94;5009506;28;19925;-85
2023/06/01 06:51:04;;;;;;;;;;;;;;;17.78;100.00;99838.31;5011236;28;19918;-86
2023/06/01 06:53:30;;;;;;;;;;;;;;;17.90;100.00;99844.84;4979628;28;19921;-86
2023/06/01 06:55:56;;;;;;;;;;;;;;;17.98;100.00;99844.75;5012165;28;19932;-86
2023/06/01 06:58:21;;;;;;;;;;;;;;;18.04;100.00;99848.53;5010374;28;19918;-86
2023/06/01 07:00:47;;;;;;;;;;;;;;;17.92;100.00;99845.47;5012630;28;19949;-86
2023/06/01 07:03:13;;;;;;;;;;;;;;;18.04;100.00;99848.53;5009862;28;19918;-86
2023/06/01 07:05:38;;;;;;;;;;;;;;;18.12;100.00;99854.63;4990951;28;20263;-85
2023/06/01 07:08:04;;;;;;;;;;;;;;;18.25;100.00;99851.31;5011789;28;19928;-85
2023/06/01 07:10:29;;;;;;;;;;;;;;;18.33;100.00;99845.84;4989880;28;19929;-85
2023/06/01 07:12:55;;;;;;;;;;;;;;;18.45;100.00;99855.06;5010419;28;19952;-87
2023/06/01 07:15:21;;;;;;;;;;;;;;;18.52;100.00;99852.47;5009746;28;19917;-85
2023/06/01 07:17:47;;;;;;;;;;;;;;;18.59;100.00;99853.44;5010548;28;19929;-86
2023/06/01 07:20:12;;;;;;;;;;;;;;;18.54;100.00;99855.81;5009622;28;19918;-86
2023/06/01 07:22:38;;;;;;;;;;;;;;;18.53;100.00;99859.47;5004793;28;19929;-86
2023/06/01 07:25:05;;;;;;;;;;;;;;;18.55;100.00;99852.97;5008468;28;19920;-85
2023/06/01 07:27:31;;;;;;;;;;;;;;;18.58;100.00;99857.94;5008992;28;20263;-86
2023/06/01 07:29:56;;;;;;;;;;;;;;;18.69;100.00;99853.94;4991210;28;19964;-85
2023/06/01 07:32:22;;;;;;;;;;;;;;;18.80;100.00;99850.78;5005247;28;19925;-86
2023/06/01 07:34:48;;;;;;;;;;;;;;;18.85;100.00;99852.91;5005801;28;20012;-86
2023/06/01 07:37:13;;;;;;;;;;;;;;;18.87;100.00;99845.50;5007358;28;19924;-86
2023/06/01 07:39:39;;;;;;;;;;;;;;;18.90;100.00;99856.69;4991674;28;19917;-85
2023/06/01 07:42:04;;;;;;;;;;;;;;;18.94;100.00;99852.59;5007598;28;19918;-86
2023/06/01 07:44:30;;;;;;;;;;;;;;;18.96;100.00;99850.56;5010692;28;19973;-86
2023/06/01 07:46:55;;;;;;;;;;;;;;;18.96;100.00;99855.09;5005801;28;19926;-87
2023/06/01 07:49:21;;;;;;;;;;;;;;;18.97;100.00;99849.53;4996752;28;19917;-86
2023/06/01 07:51:46;;;;;;;;;;;;;;;19.00;100.00;99851.84;5013892;28;19928;-86
2023/06/01 07:54:12;;;;;;;;;;;;;;;19.11;100.00;99848.66;5013511;28;19952;-85
2023/06/01 07:56:37;;;;;;;;;;;;;;;19.27;100.00;99844.91;5027914;28;19923;-86
2023/06/01 07:59:03;;;;;;;;;;;;;;;19.43;100.00;99841.97;5014562;28;19918;-86
2023/06/01 08:01:28;;;;;;;;;;;;;;;19.52;100.00;99856.06;5022206;28;19917;-85
2023/06/01 08:03:55;;;;;;;;;;;;;;;19.57;100.00;99850.97;5023343;28;19972;-87
2023/06/01 08:06:22;;;;;;;;;;;;;;;19.76;100.00;99844.09;5021590;28;20168;-86
2023/06/01 08:08:49;;;;;;;;;;;;;;;19.93;100.00;99837.44;5015794;28;19917;-87
2023/06/01 08:11:15;;;;;;;;;;;;;;;20.02;100.00;99842.47;5020250;28;19917;-86
2023/06/01 08:13:41;;;;;;;;;;;;;;;20.15;100.00;99840.84;5023735;28;19960;-85
2023/06/01 08:16:06;;;;;;;;;;;;;;;20.23;100.00;99838.84;5020326;28;19917;-86
2023/06/01 08:18:32;;;;;;;;;;;;;;;20.24;100.00;99834.31;5018376;28;19973;-86
2023/06/01 08:21:00;;;;;;;;;;;;;;;20.31;100.00;99838.69;5021998;28;19925;-86
2023/06/01 08:23:26;;;;;;;;;;;;;;;20.37;100.00;99839.78;5013884;28;19918;-86
2023/06/01 08:25:52;;;;;;;;;;;;;;;20.47;100.00;99839.41;5001054;28;19917;-86
2023/06/01 08:28:17;;;;;;;;;;;;;;;20.45;100.00;99839.59;5016172;28;19941;-86
2023/06/01 08:30:43;;;;;;;;;;;;;;;20.55;100.00;99837.41;5013190;28;19917;-85
2023/06/01 08:33:08;;;;;;;;;;;;;;;20.66;100.00;99839.50;5017792;28;19917;-86
2023/06/01 08:35:34;;;;;;;;;;;;;;;20.76;100.00;99828.38;5022808;28;20004;-87
2023/06/01 08:38:03;;;;;;;;;;;;;;;20.81;100.00;99832.09;5026219;28;19921;-86
2023/06/01 08:40:31;;;;;;;;;;;;;;;20.87;100.00;99824.28;5020094;28;20040;-86
2023/06/01 08:42:58;;;;;;;;;;;;;;;20.84;100.00;99826.34;5012793;28;19944;-86
2023/06/01 08:45:24;;;;;;;;;;;;;;;20.81;100.00;99826.75;5000299;28;20027;-87
2023/06/01 08:47:52;;;;;;;;;;;;;;;20.88;100.00;99820.56;5014136;28;19922;-85
2023/06/01 08:50:18;;;;;;;;;;;;;;;20.93;100.00;99823.47;5015658;28;19994;-85
2023/06/01 08:52:45;;;;;;;;;;;;;;;20.97;100.00;99824.75;5014930;28;19926;-85
2023/06/01 08:55:11;;;;;;;;;;;;;;;20.96;100.00;99823.91;5003243;28;20019;-82
2023/06/01 08:57:40;;;;;;;;;;;;;;;20.94;100.00;99819.75;5015656;28;19964;-85
2023/06/01 09:00:05;;;;;;;;;;;;;;;20.93;100.00;99815.41;5009745;28;20298;-85
2023/06/01 09:02:31;;;;;;;;;;;;;;;21.01;100.00;99815.25;5023740;28;19922;-85
2023/06/01 09:05:21;;;;;;;;;;;;;;;21.07;100.00;99809.88;5025056;28;19925;-86
2023/06/01 09:07:48;;;;;;;;;;;;;;;21.16;100.00;99807.84;5023654;28;19917;-85
2023/06/01 09:10:14;;;;;;;;;;;;;;;21.20;100.00;99804.56;5025178;28;19917;-83
2023/06/01 09:12:50;;;;;;;;;;;;;;;21.27;100.00;99801.88;5012174;28;19928;-85
2023/06/01 09:15:17;;;;;;;;;;;;;;;21.34;100.00;99800.03;5018695;28;19918;-85
2023/06/01 09:17:43;;;;;;;;;;;;;;;21.25;100.00;99801.28;5014245;28;19917;-86
2023/06/01 09:20:13;;;;;;;;;;;;;;;21.31;100.00;99795.09;5011549;28;19921;-86
2023/06/01 09:22:43;;;;;;;;;;;;;;;21.39;100.00;99786.81;4989240;28;19917;-85
2023/06/01 09:25:09;;;;;;;;;;;;;;;21.42;100.00;99791.78;5007351;28;19953;-85
2023/06/01 09:27:49;;;;;;;;;;;;;;;21.39;100.00;99792.16;5009452;28;19925;-86
2023/06/01 09:30:15;;;;;;;;;;;;;;;21.38;100.00;99787.88;5005802;28;20373;-86
2023/06/01 09:32:41;;;;;;;;;;;;;;;21.43;100.00;99788.06;5008946;28;19917;-86
2023/06/01 09:35:07;;;;;;;;;;;;;;;21.48;100.00;99790.94;5010929;28;19953;-86
2023/06/01 09:37:37;;;;;;;;;;;;;;;21.50;100.00;99794.22;5007255;28;19968;-86
2023/06/01 09:40:15;;;;;;;;;;;;;;;21.55;100.00;99786.41;5008342;28;19928;-85
2023/06/01 09:42:41;;;;;;;;;;;;;;;21.64;100.00;99784.31;5008267;28;19921;-86
2023/06/01 09:45:20;;;;;;;;;;;;;;;21.69;100.00;99789.06;5008003;28;20436;-86
2023/06/01 09:47:46;;;;;;;;;;;;;;;21.72;100.00;99791.34;4994606;28;19959;-86
2023/06/01 09:50:31;;;;;;;;;;;;;;;21.77;100.00;99788.84;5011876;28;19914;-86
2023/06/01 09:52:59;;;;;;;;;;;;;;;21.86;100.00;99782.19;5009685;28;19932;-87
2023/06/01 09:55:25;;;;;;;;;;;;;;;21.94;100.00;99774.75;5010320;28;19951;-86
2023/06/01 09:57:50;;;;;;;;;;;;;;;21.97;100.00;99785.09;5008258;28;19972;-85
2023/06/01 10:00:24;;;;;;;;;;;;;;;22.02;100.00;99779.94;5001842;28;19925;-86
2023/06/01 10:02:50;;;;;;;;;;;;;;;22.08;100.00;99775.59;5003924;28;19917;-84
2023/06/01 10:05:16;;;;;;;;;;;;;;;22.11;100.00;99775.16;5005209;28;19923;-86
2023/06/01 10:07:41;;;;;;;;;;;;;;;22.16;100.00;99771.81;5001518;28;20000;-86
2023/06/01 10:10:07;;;;;;;;;;;;;;;22.18;100.00;99770.56;5008953;28;19921;-85
2023/06/01 10:12:34;;;;;;;;;;;;;;;22.29;100.00;99767.22;5007965;28;19922;-85
2023/06/01 10:15:00;;;;;;;;;;;;;;;22.37;100.00;99758.94;5003851;28;19991;-85
2023/06/01 10:17:25;;;;;;;;;;;;;;;22.49;100.00;99760.94;4997335;28;19917;-86
2023/06/01 10:19:51;;;;;;;;;;;;;;;22.54;100.00;99755.72;5002267;28;20293;-85
2023/06/01 10:22:16;;;;;;;;;;;;;;;22.67;100.00;99761.88;5001794;28;20001;-86
2023/06/01 10:24:42;;;;;;;;;;;;;;;22.73;100.00;99760.22;4983233;28;20342;-86
2023/06/01 10:27:11;;;;;;;;;;;;;;;22.78;100.00;99765.75;4985883;28;19917;-83
2023/06/01 10:29:37;;;;;;;;;;;;;;;22.84;100.00;99759.53;5006532;28;19917;-82
2023/06/01 10:32:02;;;;;;;;;;;;;;;22.80;100.00;99763.66;5003734;28;19940;-83
2023/06/01 10:34:42;;;;;;;;;;;;;;;22.81;100.00;99759.94;4987185;28;19921;-84
2023/06/01 10:37:07;;;;;;;;;;;;;;;22.83;100.00;99757.88;5007168;28;19925;-83
2023/06/01 10:39:33;;;;;;;;;;;;;;;22.78;99.50;99761.22;5001712;28;19921;-82
2023/06/01 10:42:14;;;;;;;;;;;;;;;22.76;100.00;99762.47;5003745;28;20527;-85
2023/06/01 10:44:40;;;;;;;;;;;;;;;22.79;100.00;99770.13;4999052;28;19933;-81
2023/06/01 10:47:11;;;;;;;;;;;;;;;22.75;100.00;99760.81;5005243;28;20147;-81
2023/06/01 10:49:49;;;;;;;;;;;;;;;22.78;100.00;99760.38;4987990;28;19918;-82
2023/06/01 10:52:34;;;;;;;;;;;;;;;22.86;100.00;99758.25;5006688;28;19917;-82
2023/06/01 10:55:07;;;;;;;;;;;;;;;22.94;100.00;99750.94;4986885;28;19928;-82
2023/06/01 10:57:39;;;;;;;;;;;;;;;23.07;100.00;99742.78;5005578;28;19924;-83
2023/06/01 11:00:26;;;;;;;;;;;;;;;23.18;100.00;99739.38;5003094;28;19940;-83
2023/06/01 11:02:54;;;;;;;;;;;;;;;23.17;98.98;99743.94;4975579;28;19925;-86
2023/06/01 11:05:33;;;;;;;;;;;;;;;23.17;98.02;99735.88;4987907;28;19921;-85
2023/06/01 11:07:59;;;;;;;;;;;;;;;23.18;98.70;99740.22;5000494;28;19918;-85
2023/06/01 11:10:49;;;;;;;;;;;;;;;23.13;96.86;99737.34;4986494;28;19972;-85
2023/06/01 11:13:18;;;;;;;;;;;;;;;23.10;96.82;99737.78;4970884;28;20000;-85
2023/06/01 11:16:04;;;;;;;;;;;;;;;23.11;97.20;99739.44;5005229;28;20370;-86
2023/06/01 11:18:58;;;;;;;;;;;;;;;23.13;97.88;99731.97;5004078;28;19927;-84
2023/06/01 11:21:24;;;;;;;;;;;;;;;23.28;97.99;99731.63;4972150;28;19981;-83
2023/06/01 11:23:50;;;;;;;;;;;;;;;23.41;98.25;99728.00;5006619;28;19921;-85
2023/06/01 11:26:17;;;;;;;;;;;;;;;23.51;96.68;99733.72;5005591;28;20323;-85
2023/06/01 11:28:43;;;;;;;;;;;;;;;23.65;96.97;99729.84;5006389;28;19923;-85
2023/06/01 11:31:09;;;;;;;;;;;;;;;23.77;97.53;99724.56;5009513;28;20400;-86
2023/06/01 11:33:37;;;;;;;;;;;;;;;23.85;97.40;99721.56;5005887;28;19928;-85
2023/06/01 11:36:05;;;;;;;;;;;;;;;23.89;96.33;99715.50;4985593;28;20734;-82
2023/06/01 11:38:35;;;;;;;;;;;;;;;23.98;96.43;99722.22;4989128;28;19933;-84
2023/06/01 11:41:01;;;;;;;;;;;;;;;24.04;96.14;99718.63;5008196;28;20382;-86
2023/06/01 11:43:28;;;;;;;7.05;5.55;;;;;;;24.11;94.12;99717.72;5006014;28;20016;-85
2023/06/01 11:46:16;;;;;;;6.60;5.90;;;;;;;24.12;93.69;99711.28;5005387;28;20034;-82
2023/06/01 11:48:42;;;;;;;6.88;6.22;;;;;;;24.16;93.69;99709.78;5003117;28;20100;-86
2023/06/01 11:51:08;;;;;;;8.30;5.90;;;;;;;24.15;93.45;99708.16;4987122;28;20038;-81
2023/06/01 11:53:33;;;;;;;8.07;6.50;;;;;;;24.19;92.29;99698.59;5005905;28;20030;-79
2023/06/01 11:55:59;;;;;;;8.93;6.50;;;;;;;24.12;92.22;99697.81;5007218;28;20053;-80
2023/06/01 11:58:29;;;;;;;6.80;6.20;;;;;;;24.07;94.34;99696.63;5006704;28;20096;-79
2023/06/01 12:00:57;;;;;;;8.68;6.45;;;;;;;24.01;94.89;99689.44;4994629;28;20525;-78
2023/06/01 12:03:24;;;;;;;7.32;6.47;;;;;;;24.03;95.49;99681.94;5010104;28;20030;-79
2023/06/01 12:05:50;;;;;;;7.45;5.78;;;;;;;24.02;95.42;99672.22;4990836;28;20486;-80
2023/06/01 12:08:21;;;;;;;6.80;6.10;;;;;;;24.22;94.50;99671.16;5009779;28;20172;-80
2023/06/01 12:10:48;;;;;;;8.30;6.40;;;;;;;24.53;92.16;99673.63;5008809;28;20479;-80
2023/06/01 12:13:15;;;;;;;5.87;5.37;;;;;;;24.84;90.96;99665.25;4984093;28;20365;-82
2023/06/01 12:15:41;;;;;;;;;;;;;;;25.00;84.11;99662.94;5004326;28;20466;-80
2023/06/01 12:18:07;;;;;;;;;;;;;;;24.97;85.26;99661.53;5004307;28;19944;-79
2023/06/01 12:20:36;;;;;;;;;;;;;;;24.83;84.94;99663.59;4987613;28;19999;-78
2023/06/01 12:23:19;;;;;;;;;;;;;;;24.92;87.64;99650.59;5004486;28;20390;-78
2023/06/01 12:25:48;;;;;;;;;;;;;;;25.21;85.73;99648.88;4998316;28;20004;-79
2023/06/01 12:28:13;;;;;;;;;;;;;;;25.46;84.50;99646.72;5002222;28;19918;-79
2023/06/01 12:30:38;;;;;;;;;;;;;;;25.50;83.01;99649.78;5000396;28;20282;-79
2023/06/01 12:33:05;;;;;;;;;;;;;;;25.42;83.18;99632.03;5005409;28;19917;-79
2023/06/01 12:35:31;;;;;;;;;;;;;;;25.59;82.49;99643.78;5005576;28;19917;-78
2023/06/01 12:38:06;;;;;;;;;;;;;;;25.72;79.07;99639.19;5005287;28;19932;-79
2023/06/01 12:40:32;;;;;;;;;;;;;;;25.96;80.10;99638.06;5001290;28;20282;-78